Fulton Springs, Alabama
Current Conditions -  °F | °C
As of 8:53 PM on Saturday 25 Oct 2014 (Local Time) from KBHM Reporting Station
Clear Clear  
Wind Chill: 62°   Ceiling: Unl
Heat Index: 62°   Visibility: 10mi
Dew Point: 58°   Wind: 3mph
Humidity: 86%   Direction: 120°ESE
Pressure: 30.08"   Gusts: NA
Location:  33.606°N, 86.8244°W
Report Text: KBHM 260153Z 12003KT 10SM CLR 17/14 A3008 RMK AO2 SLP182 T01670144
Loading
Personal Weather Stations






























Interactive Weather Map
Tropical Storm Tracking
New forecast layout! Learn more

10-Day Weather Forecast

Advertisements
Track Severe Weather on mobile